createdAt,value
2019-01-25T00:00:39.870Z,0
2019-01-25T00:01:42.097Z,0
2019-01-25T00:02:44.615Z,0
2019-01-25T00:03:46.826Z,0
2019-01-25T00:04:49.335Z,0
2019-01-25T00:05:51.545Z,0
2019-01-25T00:06:53.751Z,0
2019-01-25T00:07:55.969Z,0
2019-01-25T00:08:58.180Z,0
2019-01-25T00:10:00.770Z,0
2019-01-25T00:11:03.025Z,0
2019-01-25T00:12:05.511Z,0
2019-01-25T00:13:07.720Z,0
2019-01-25T00:14:10.218Z,0
2019-01-25T00:15:12.418Z,0
2019-01-25T00:16:15.010Z,0
2019-01-25T00:17:17.670Z,0
2019-01-25T00:18:19.906Z,0
2019-01-25T00:19:22.114Z,0
2019-01-25T00:20:24.320Z,0
2019-01-25T00:21:26.548Z,0
2019-01-25T00:22:28.753Z,0
2019-01-25T00:23:30.961Z,0
2019-01-25T00:24:33.170Z,0
2019-01-25T00:25:35.376Z,0
2019-01-25T00:26:37.588Z,0
2019-01-25T00:27:39.792Z,0
2019-01-25T00:28:42.451Z,0
2019-01-25T00:29:44.727Z,0
2019-01-25T00:30:47.229Z,0
2019-01-25T00:31:49.436Z,0
2019-01-25T00:32:51.647Z,0
2019-01-25T00:33:53.858Z,0
2019-01-25T00:34:56.066Z,0
2019-01-25T00:35:58.274Z,0
2019-01-25T00:37:00.483Z,0
2019-01-25T00:38:03.384Z,0
2019-01-25T00:39:05.593Z,0
2019-01-25T00:40:08.385Z,0
2019-01-25T00:41:10.634Z,0
2019-01-25T00:42:12.835Z,0
2019-01-25T00:43:15.042Z,0
2019-01-25T00:44:17.252Z,0
2019-01-25T00:45:19.459Z,0
2019-01-25T00:46:21.669Z,0
2019-01-25T00:47:23.875Z,0
2019-01-25T00:48:26.081Z,0
2019-01-25T00:49:28.292Z,0
2019-01-25T00:50:30.491Z,0
2019-01-25T00:51:32.699Z,0
2019-01-25T00:52:35.186Z,0
2019-01-25T00:53:37.393Z,0
2019-01-25T00:54:39.605Z,0
2019-01-25T00:55:42.100Z,0
2019-01-25T00:56:44.312Z,0
2019-01-25T00:57:46.911Z,0
2019-01-25T00:58:49.128Z,0
2019-01-25T00:59:51.336Z,0
2019-01-25T01:00:53.558Z,0
2019-01-25T01:01:56.061Z,0
2019-01-25T01:02:58.270Z,0
2019-01-25T01:04:00.487Z,0
2019-01-25T01:05:02.692Z,0
2019-01-25T01:06:04.905Z,0
2019-01-25T01:07:07.415Z,0
2019-01-25T01:08:09.903Z,0
2019-01-25T01:09:12.406Z,0
2019-01-25T01:10:15.696Z,0
2019-01-25T01:11:18.190Z,0
2019-01-25T01:12:20.391Z,0
2019-01-25T01:13:22.595Z,0
2019-01-25T01:14:24.798Z,0
2019-01-25T01:15:27.002Z,0
2019-01-25T01:16:29.602Z,0
2019-01-25T01:17:31.813Z,0
2019-01-25T01:18:34.014Z,0
2019-01-25T01:19:36.622Z,0
2019-01-25T01:20:38.835Z,0
2019-01-25T01:21:41.049Z,0
2019-01-25T01:22:43.263Z,0
2019-01-25T01:23:45.474Z,0
2019-01-25T01:24:47.675Z,0
2019-01-25T01:25:49.840Z,0
2019-01-25T01:26:52.027Z,0
2019-01-25T01:27:54.194Z,0
2019-01-25T01:28:56.412Z,0
2019-01-25T01:29:58.589Z,0
2019-01-25T01:31:00.760Z,0
2019-01-25T01:32:02.963Z,0
2019-01-25T01:33:05.139Z,0
2019-01-25T01:34:07.310Z,0
2019-01-25T01:35:09.750Z,0
2019-01-25T01:36:11.972Z,0
2019-01-25T01:37:14.528Z,0
2019-01-25T01:38:16.687Z,0
2019-01-25T01:39:18.875Z,0
2019-01-25T01:40:23.835Z,0
2019-01-25T01:41:26.389Z,0
2019-01-25T01:42:28.583Z,0
2019-01-25T01:43:30.732Z,0
2019-01-25T01:44:32.920Z,0
2019-01-25T01:45:35.089Z,0
2019-01-25T01:46:37.265Z,0
2019-01-25T01:47:40.187Z,0
2019-01-25T01:48:42.366Z,0
2019-01-25T01:49:44.869Z,0
2019-01-25T01:50:47.033Z,0
2019-01-25T01:51:49.210Z,0
2019-01-25T01:52:51.674Z,0
2019-01-25T01:53:54.227Z,0
2019-01-25T01:54:56.402Z,0
2019-01-25T01:55:58.554Z,0
2019-01-25T01:57:01.114Z,0
2019-01-25T01:58:03.272Z,0
2019-01-25T01:59:05.446Z,0
2019-01-25T02:00:07.628Z,0
2019-01-25T02:01:10.100Z,0
2019-01-25T02:02:12.262Z,0
2019-01-25T02:03:14.439Z,0
2019-01-25T02:04:16.618Z,0
2019-01-25T02:05:19.066Z,0
2019-01-25T02:06:21.518Z,0
2019-01-25T02:07:23.981Z,0
2019-01-25T02:08:26.534Z,0
2019-01-25T02:09:28.717Z,0
2019-01-25T02:10:31.231Z,0
2019-01-25T02:11:33.392Z,0
2019-01-25T02:12:35.902Z,0
2019-01-25T02:13:38.072Z,0
2019-01-25T02:14:40.230Z,0
2019-01-25T02:15:42.702Z,0
2019-01-25T02:16:44.857Z,0
2019-01-25T02:17:47.031Z,0
2019-01-25T02:18:49.198Z,0
2019-01-25T02:19:51.377Z,0
2019-01-25T02:20:53.524Z,0
2019-01-25T02:21:55.702Z,0
2019-01-25T02:22:57.871Z,0
2019-01-25T02:24:00.032Z,0
2019-01-25T02:25:02.494Z,0
2019-01-25T02:26:04.650Z,0
2019-01-25T02:27:06.821Z,0
2019-01-25T02:28:08.982Z,0
2019-01-25T02:29:11.166Z,0
2019-01-25T02:30:13.372Z,0
2019-01-25T02:31:15.870Z,0
2019-01-25T02:32:18.042Z,0
2019-01-25T02:33:20.495Z,0
2019-01-25T02:34:22.683Z,0
2019-01-25T02:35:24.908Z,0
2019-01-25T02:36:27.077Z,0
2019-01-25T02:37:29.260Z,0
2019-01-25T02:38:31.447Z,0
2019-01-25T02:39:33.955Z,0
2019-01-25T02:40:40.746Z,0
2019-01-25T02:41:42.933Z,0
2019-01-25T02:42:45.099Z,0
2019-01-25T02:43:47.276Z,0
2019-01-25T02:44:49.474Z,0
2019-01-25T02:45:51.639Z,0
2019-01-25T02:46:53.813Z,0
2019-01-25T02:47:56.051Z,0
2019-01-25T02:48:58.212Z,0
2019-01-25T02:50:00.626Z,0
2019-01-25T02:51:03.121Z,0
2019-01-25T02:52:05.302Z,0
2019-01-25T02:53:07.621Z,0
2019-01-25T02:54:09.811Z,0
2019-01-25T02:55:11.978Z,0
2019-01-25T02:56:14.557Z,0
2019-01-25T02:57:16.751Z,0
2019-01-25T02:58:19.190Z,0
2019-01-25T02:59:21.377Z,0
2019-01-25T03:00:23.830Z,0
2019-01-25T03:01:26.012Z,0
2019-01-25T03:02:28.247Z,0
2019-01-25T03:03:30.432Z,0
2019-01-25T03:04:32.892Z,0
2019-01-25T03:05:35.353Z,0
2019-01-25T03:06:37.831Z,0
2019-01-25T03:07:40.410Z,0
2019-01-25T03:08:42.866Z,0
2019-01-25T03:09:45.049Z,0
2019-01-25T03:10:48.711Z,0
2019-01-25T03:11:50.899Z,0
2019-01-25T03:12:53.063Z,0
2019-01-25T03:13:55.247Z,0
2019-01-25T03:14:57.418Z,0
2019-01-25T03:15:59.579Z,0
2019-01-25T03:17:01.753Z,0
2019-01-25T03:18:03.957Z,0
2019-01-25T03:19:06.437Z,0
2019-01-25T03:20:08.921Z,0
2019-01-25T03:21:11.107Z,0
2019-01-25T03:22:13.558Z,0
2019-01-25T03:23:15.784Z,0
2019-01-25T03:24:17.963Z,0
2019-01-25T03:25:20.535Z,0
2019-01-25T03:26:22.977Z,0
2019-01-25T03:27:25.447Z,0
2019-01-25T03:28:27.924Z,0
2019-01-25T03:29:30.126Z,0
2019-01-25T03:30:33.034Z,0
2019-01-25T03:31:39.176Z,0
2019-01-25T03:32:42.001Z,0
2019-01-25T03:33:44.850Z,0
2019-01-25T03:34:47.423Z,0
2019-01-25T03:35:49.885Z,0
2019-01-25T03:36:52.463Z,0
2019-01-25T03:37:54.633Z,0
2019-01-25T03:38:56.803Z,0
2019-01-25T03:39:58.994Z,0
2019-01-25T03:41:01.438Z,0
2019-01-25T03:42:03.942Z,0
2019-01-25T03:43:06.179Z,0
2019-01-25T03:44:08.738Z,0
2019-01-25T03:45:11.301Z,0
2019-01-25T03:46:13.473Z,0
2019-01-25T03:47:16.051Z,0
2019-01-25T03:48:18.552Z,0
2019-01-25T03:49:20.716Z,0
2019-01-25T03:50:22.891Z,0
2019-01-25T03:51:25.087Z,0
2019-01-25T03:52:27.254Z,0
2019-01-25T03:53:29.429Z,0
2019-01-25T03:54:32.013Z,0
2019-01-25T03:55:34.853Z,0
2019-01-25T03:56:37.041Z,0
2019-01-25T03:57:39.217Z,0
2019-01-25T03:58:41.396Z,0
2019-01-25T03:59:43.863Z,0
2019-01-25T04:00:46.347Z,0
2019-01-25T04:01:48.794Z,0
2019-01-25T04:02:50.979Z,0
2019-01-25T04:03:53.550Z,0
2019-01-25T04:04:56.098Z,0
2019-01-25T04:05:58.291Z,0
2019-01-25T04:07:00.464Z,0
2019-01-25T04:08:02.644Z,0
2019-01-25T04:09:04.816Z,0
2019-01-25T04:10:07.006Z,0
2019-01-25T04:11:09.472Z,0
2019-01-25T04:12:11.934Z,0
2019-01-25T04:13:14.135Z,0
2019-01-25T04:14:16.293Z,0
2019-01-25T04:15:19.150Z,0
2019-01-25T04:16:21.329Z,0
2019-01-25T04:17:23.494Z,0
2019-01-25T04:18:25.670Z,0
2019-01-25T04:19:27.857Z,0
2019-01-25T04:20:30.024Z,0
2019-01-25T04:21:32.204Z,0
2019-01-25T04:22:34.690Z,0
2019-01-25T04:23:36.868Z,0
2019-01-25T04:24:39.051Z,0
2019-01-25T04:25:41.494Z,0
2019-01-25T04:26:43.666Z,0
2019-01-25T04:27:45.865Z,0
2019-01-25T04:28:48.028Z,0
2019-01-25T04:29:50.217Z,0
2019-01-25T04:30:52.460Z,0
2019-01-25T04:31:54.922Z,0
2019-01-25T04:32:57.396Z,0
2019-01-25T04:33:59.870Z,0
2019-01-25T04:35:02.038Z,0
2019-01-25T04:36:04.224Z,0
2019-01-25T04:37:06.419Z,0
2019-01-25T04:38:08.611Z,0
2019-01-25T04:39:10.823Z,0
2019-01-25T04:40:13.678Z,0
2019-01-25T04:41:15.860Z,0
2019-01-25T04:42:18.024Z,0
2019-01-25T04:43:20.218Z,0
2019-01-25T04:44:22.405Z,0
2019-01-25T04:45:24.637Z,0
2019-01-25T04:46:26.825Z,0
2019-01-25T04:47:28.998Z,0
2019-01-25T04:48:31.763Z,0
2019-01-25T04:49:34.272Z,0
2019-01-25T04:50:36.762Z,0
2019-01-25T04:51:38.950Z,0
2019-01-25T04:52:41.131Z,0
2019-01-25T04:53:43.310Z,0
2019-01-25T04:54:45.816Z,0
2019-01-25T04:55:48.588Z,0
2019-01-25T04:56:51.041Z,0
2019-01-25T04:57:53.580Z,0
2019-01-25T04:58:55.770Z,0
2019-01-25T04:59:57.953Z,0
2019-01-25T05:01:00.128Z,0
2019-01-25T05:02:02.328Z,0
2019-01-25T05:03:04.753Z,0
2019-01-25T05:04:06.878Z,0
2019-01-25T05:05:08.977Z,0
2019-01-25T05:06:11.789Z,0
2019-01-25T05:07:14.173Z,0
2019-01-25T05:08:17.843Z,0
2019-01-25T05:09:19.954Z,0
2019-01-25T05:10:22.059Z,0
2019-01-25T05:11:24.456Z,0
2019-01-25T05:12:26.552Z,0
2019-01-25T05:13:28.947Z,0
2019-01-25T05:14:31.102Z,0
2019-01-25T05:15:33.294Z,0
2019-01-25T05:16:35.411Z,0
2019-01-25T05:17:37.912Z,0
2019-01-25T05:18:40.314Z,0
2019-01-25T05:19:42.438Z,0
2019-01-25T05:20:44.912Z,0
2019-01-25T05:21:47.056Z,0
2019-01-25T05:22:49.464Z,0
2019-01-25T05:23:51.964Z,0
2019-01-25T05:24:54.681Z,0
2019-01-25T05:25:57.063Z,0
2019-01-25T05:26:59.586Z,0
2019-01-25T05:28:02.086Z,0
2019-01-25T05:29:04.176Z,0
2019-01-25T05:30:06.285Z,0
2019-01-25T05:31:08.405Z,0
2019-01-25T05:32:10.503Z,0
2019-01-25T05:33:12.611Z,0
2019-01-25T05:34:14.721Z,0
2019-01-25T05:35:16.817Z,0
2019-01-25T05:36:18.949Z,0
2019-01-25T05:37:21.343Z,0
2019-01-25T05:38:23.446Z,0
2019-01-25T05:39:25.902Z,0
2019-01-25T05:40:28.009Z,0
2019-01-25T05:41:30.315Z,0
2019-01-25T05:42:32.708Z,0
2019-01-25T05:43:34.809Z,0
2019-01-25T05:44:36.937Z,0
2019-01-25T05:45:39.035Z,0
2019-01-25T05:46:41.137Z,0
2019-01-25T05:47:43.290Z,0
2019-01-25T05:48:45.418Z,0
2019-01-25T05:49:48.099Z,0
2019-01-25T05:50:50.213Z,0
2019-01-25T05:51:52.321Z,0
2019-01-25T05:52:54.425Z,0
2019-01-25T05:53:56.541Z,0
2019-01-25T05:54:58.649Z,0
2019-01-25T05:56:01.032Z,0
2019-01-25T05:57:03.136Z,0
2019-01-25T05:58:05.253Z,0
2019-01-25T05:59:08.038Z,0
2019-01-25T06:00:10.157Z,0
2019-01-25T06:01:12.560Z,0
2019-01-25T06:02:14.652Z,0
2019-01-25T06:03:16.765Z,0
2019-01-25T06:04:18.886Z,0
2019-01-25T06:05:20.981Z,0
2019-01-25T06:06:23.095Z,0
2019-01-25T06:07:25.205Z,0
2019-01-25T06:08:27.294Z,0
2019-01-25T06:09:29.792Z,0
2019-01-25T06:10:32.185Z,0
2019-01-25T06:11:36.946Z,0
2019-01-25T06:12:39.051Z,0
2019-01-25T06:13:41.166Z,0
2019-01-25T06:14:43.264Z,0
2019-01-25T06:15:45.377Z,0
2019-01-25T06:16:47.499Z,0
2019-01-25T06:17:49.631Z,0
2019-01-25T06:18:52.339Z,0
2019-01-25T06:19:54.751Z,0
2019-01-25T06:20:57.285Z,0
2019-01-25T06:21:59.399Z,0
2019-01-25T06:23:01.496Z,0
2019-01-25T06:24:03.603Z,0
2019-01-25T06:25:06.127Z,0
2019-01-25T06:26:08.212Z,0
2019-01-25T06:27:10.337Z,0
2019-01-25T06:28:12.443Z,0
2019-01-25T06:29:14.534Z,0
2019-01-25T06:30:18.178Z,0
2019-01-25T06:31:20.281Z,0
2019-01-25T06:32:22.371Z,0
2019-01-25T06:33:24.779Z,0
2019-01-25T06:34:26.883Z,0
2019-01-25T06:35:29.001Z,0
2019-01-25T06:36:31.125Z,0
2019-01-25T06:37:33.236Z,0
2019-01-25T06:38:35.640Z,0
2019-01-25T06:39:37.749Z,0
2019-01-25T06:40:41.439Z,0
2019-01-25T06:41:45.836Z,0
2019-01-25T06:42:47.951Z,0
2019-01-25T06:43:50.045Z,0
2019-01-25T06:44:52.140Z,0
2019-01-25T06:45:54.229Z,0
2019-01-25T06:46:56.352Z,0
2019-01-25T06:47:58.438Z,0
2019-01-25T06:49:00.537Z,0
2019-01-25T06:50:03.074Z,0
2019-01-25T06:51:05.163Z,0
2019-01-25T06:52:07.743Z,0
2019-01-25T06:53:09.835Z,0
2019-01-25T06:54:11.937Z,0
2019-01-25T06:55:14.020Z,0
2019-01-25T06:56:16.170Z,0
2019-01-25T06:57:18.278Z,0
2019-01-25T06:58:20.389Z,0
2019-01-25T06:59:22.473Z,0
2019-01-25T07:00:24.584Z,0
2019-01-25T07:01:26.729Z,0
2019-01-25T07:02:28.818Z,0
2019-01-25T07:03:30.916Z,0
2019-01-25T07:04:33.038Z,0
2019-01-25T07:05:35.134Z,0
2019-01-25T07:06:37.241Z,0
2019-01-25T07:07:39.334Z,0
2019-01-25T07:08:41.812Z,0
2019-01-25T07:09:43.910Z,0
2019-01-25T07:10:46.028Z,0
2019-01-25T07:11:53.177Z,0
2019-01-25T07:12:55.580Z,0
2019-01-25T07:13:57.960Z,0
2019-01-25T07:15:00.466Z,0
2019-01-25T07:16:03.020Z,0
2019-01-25T07:17:05.117Z,0
2019-01-25T07:18:07.501Z,0
2019-01-25T07:19:09.590Z,0
2019-01-25T07:20:11.713Z,0
2019-01-25T07:21:13.805Z,0
2019-01-25T07:22:15.947Z,1
2019-01-25T07:23:18.069Z,1
2019-01-25T07:24:20.731Z,1
2019-01-25T07:25:23.144Z,1
2019-01-25T07:26:25.249Z,1
2019-01-25T07:27:27.353Z,1
2019-01-25T07:28:29.438Z,1
2019-01-25T07:29:31.944Z,1
2019-01-25T07:30:34.480Z,1
2019-01-25T07:31:36.727Z,1
2019-01-25T07:32:39.395Z,1
2019-01-25T07:33:41.793Z,1
2019-01-25T07:34:44.302Z,1
2019-01-25T07:35:46.447Z,1
2019-01-25T07:36:48.648Z,1
2019-01-25T07:37:51.226Z,2
2019-01-25T07:38:53.397Z,2
2019-01-25T07:39:55.718Z,2
2019-01-25T07:40:57.930Z,2
2019-01-25T07:42:04.005Z,2
2019-01-25T07:43:06.518Z,2
2019-01-25T07:44:08.704Z,2
2019-01-25T07:45:11.048Z,2
2019-01-25T07:46:13.626Z,2
2019-01-25T07:47:15.820Z,2
2019-01-25T07:48:18.095Z,2
2019-01-25T07:49:20.233Z,2
2019-01-25T07:50:22.411Z,3
2019-01-25T07:51:24.652Z,3
2019-01-25T07:52:26.929Z,3
2019-01-25T07:53:29.148Z,3
2019-01-25T07:54:31.415Z,3
2019-01-25T07:55:33.893Z,3
2019-01-25T07:56:36.047Z,3
2019-01-25T07:57:38.234Z,3
2019-01-25T07:58:40.688Z,3
2019-01-25T07:59:43.180Z,4
2019-01-25T08:00:45.447Z,4
2019-01-25T08:01:47.944Z,4
2019-01-25T08:02:50.198Z,4
2019-01-25T08:03:52.434Z,4
2019-01-25T08:04:54.634Z,4
2019-01-25T08:05:57.193Z,4
2019-01-25T08:06:59.452Z,4
2019-01-25T08:08:02.111Z,4
2019-01-25T08:09:04.294Z,4
2019-01-25T08:10:06.890Z,5
2019-01-25T08:11:09.242Z,5
2019-01-25T08:12:11.473Z,5
2019-01-25T08:13:13.611Z,5
2019-01-25T08:14:15.837Z,5
2019-01-25T08:15:18.060Z,6
2019-01-25T08:16:20.574Z,6
2019-01-25T08:17:22.725Z,6
2019-01-25T08:18:24.958Z,6
2019-01-25T08:19:27.326Z,6
2019-01-25T08:20:29.637Z,6
2019-01-25T08:21:31.849Z,6
2019-01-25T08:22:34.311Z,6
2019-01-25T08:23:36.562Z,6
2019-01-25T08:24:38.825Z,7
2019-01-25T08:25:41.047Z,7
2019-01-25T08:26:43.291Z,7
2019-01-25T08:27:45.961Z,7
2019-01-25T08:28:48.634Z,7
2019-01-25T08:29:50.917Z,7
2019-01-25T08:30:53.159Z,7
2019-01-25T08:31:55.276Z,7
2019-01-25T08:32:57.718Z,7
2019-01-25T08:33:59.977Z,7
2019-01-25T08:35:02.799Z,7
2019-01-25T08:36:05.157Z,7
2019-01-25T08:37:07.356Z,8
2019-01-25T08:38:10.380Z,8
2019-01-25T08:39:12.816Z,8
2019-01-25T08:40:15.659Z,8
2019-01-25T08:41:17.849Z,8
2019-01-25T08:42:20.182Z,8
2019-01-25T08:43:22.642Z,8
2019-01-25T08:44:25.033Z,8
2019-01-25T08:45:27.436Z,9
2019-01-25T08:46:29.917Z,9
2019-01-25T08:47:32.142Z,9
2019-01-25T08:48:34.349Z,9
2019-01-25T08:49:36.987Z,10
2019-01-25T08:50:39.488Z,10
2019-01-25T08:51:42.910Z,10
2019-01-25T08:52:45.214Z,10
2019-01-25T08:53:47.379Z,10
2019-01-25T08:54:49.677Z,10
2019-01-25T08:55:52.106Z,10
2019-01-25T08:56:54.325Z,11
2019-01-25T08:57:56.692Z,11
2019-01-25T08:59:00.405Z,11
2019-01-25T09:00:02.827Z,11
2019-01-25T09:01:05.608Z,11
2019-01-25T09:02:07.732Z,11
2019-01-25T09:03:09.852Z,11
2019-01-25T09:04:11.950Z,11
2019-01-25T09:05:14.365Z,11
2019-01-25T09:06:16.472Z,11
2019-01-25T09:07:18.584Z,12
2019-01-25T09:08:20.684Z,12
2019-01-25T09:09:22.793Z,12
2019-01-25T09:10:25.187Z,12
2019-01-25T09:11:27.286Z,12
2019-01-25T09:12:29.419Z,12
2019-01-25T09:13:31.526Z,12
2019-01-25T09:14:33.691Z,12
2019-01-25T09:15:35.813Z,11
2019-01-25T09:16:38.207Z,11
2019-01-25T09:17:40.310Z,11
2019-01-25T09:18:42.477Z,12
2019-01-25T09:19:44.571Z,12
2019-01-25T09:20:46.967Z,12
2019-01-25T09:21:49.078Z,12
2019-01-25T09:22:51.188Z,12
2019-01-25T09:23:53.319Z,12
2019-01-25T09:24:55.441Z,13
2019-01-25T09:26:02.994Z,13
2019-01-25T09:27:05.106Z,13
2019-01-25T09:28:07.202Z,13
2019-01-25T09:29:09.313Z,13
2019-01-25T09:30:11.408Z,13
2019-01-25T09:31:13.512Z,13
2019-01-25T09:32:15.604Z,13
2019-01-25T09:33:17.735Z,13
2019-01-25T09:34:19.833Z,13
2019-01-25T09:35:21.936Z,13
2019-01-25T09:36:24.444Z,13
2019-01-25T09:37:26.839Z,14
2019-01-25T09:38:28.954Z,14
2019-01-25T09:39:31.072Z,14
2019-01-25T09:40:33.177Z,14
2019-01-25T09:41:35.256Z,14
2019-01-25T09:42:37.380Z,14
2019-01-25T09:43:39.474Z,14
2019-01-25T09:44:41.577Z,14
2019-01-25T09:45:43.692Z,14
2019-01-25T09:46:46.078Z,14
2019-01-25T09:47:48.184Z,14
2019-01-25T09:48:50.603Z,14
2019-01-25T09:49:52.989Z,14
2019-01-25T09:50:55.083Z,14
2019-01-25T09:51:57.188Z,14
2019-01-25T09:52:59.291Z,14
2019-01-25T09:54:01.676Z,14
2019-01-25T09:55:04.495Z,14
2019-01-25T09:56:06.603Z,14
2019-01-25T09:57:08.697Z,14
2019-01-25T09:58:11.106Z,14
2019-01-25T09:59:13.208Z,14
2019-01-25T10:00:15.310Z,14
2019-01-25T10:01:17.430Z,14
2019-01-25T10:02:19.898Z,14
2019-01-25T10:03:22.008Z,14
2019-01-25T10:04:24.109Z,14
2019-01-25T10:05:26.234Z,14
2019-01-25T10:06:28.335Z,14
2019-01-25T10:07:30.451Z,14
2019-01-25T10:08:32.551Z,14
2019-01-25T10:09:34.650Z,14
2019-01-25T10:10:36.776Z,15
2019-01-25T10:11:38.876Z,15
2019-01-25T10:12:45.222Z,15
2019-01-25T10:13:47.329Z,15
2019-01-25T10:14:49.449Z,15
2019-01-25T10:15:51.543Z,15
2019-01-25T10:16:53.652Z,15
2019-01-25T10:17:56.063Z,15
2019-01-25T10:18:58.545Z,15
2019-01-25T10:20:00.675Z,15
2019-01-25T10:21:02.768Z,15
2019-01-25T10:22:04.859Z,15
2019-01-25T10:23:07.311Z,15
2019-01-25T10:24:09.440Z,15
2019-01-25T10:25:11.535Z,14
2019-01-25T10:26:13.659Z,14
2019-01-25T10:27:15.762Z,14
2019-01-25T10:28:17.856Z,14
2019-01-25T10:29:19.963Z,14
2019-01-25T10:30:22.085Z,14
2019-01-25T10:31:24.168Z,14
2019-01-25T10:32:26.561Z,14
2019-01-25T10:33:28.680Z,14
2019-01-25T10:34:30.781Z,14
2019-01-25T10:35:33.046Z,14
2019-01-25T10:36:35.439Z,14
2019-01-25T10:37:37.548Z,14
2019-01-25T10:38:39.684Z,14
2019-01-25T10:39:41.803Z,15
2019-01-25T10:40:43.908Z,14
2019-01-25T10:41:46.007Z,14
2019-01-25T10:42:54.973Z,14
2019-01-25T10:43:57.097Z,14
2019-01-25T10:45:04.321Z,14
2019-01-25T10:46:06.742Z,14
2019-01-25T10:47:08.861Z,14
2019-01-25T10:48:10.985Z,14
2019-01-25T10:49:13.082Z,14
2019-01-25T10:50:15.192Z,14
2019-01-25T10:51:17.308Z,14
2019-01-25T10:52:19.707Z,14
2019-01-25T10:53:21.862Z,14
2019-01-25T10:54:23.962Z,14
2019-01-25T10:55:26.054Z,14
2019-01-25T10:56:28.161Z,14
2019-01-25T10:57:30.278Z,15
2019-01-25T10:58:32.373Z,15
2019-01-25T10:59:34.495Z,15
2019-01-25T11:00:36.597Z,15
2019-01-25T11:01:38.691Z,16
2019-01-25T11:02:41.095Z,16
2019-01-25T11:03:43.221Z,17
2019-01-25T11:04:45.312Z,17
2019-01-25T11:05:47.420Z,18
2019-01-25T11:06:49.577Z,18
2019-01-25T11:07:51.966Z,19
2019-01-25T11:08:54.382Z,20
2019-01-25T11:09:56.486Z,21
2019-01-25T11:10:58.584Z,23
2019-01-25T11:12:00.686Z,25
2019-01-25T11:13:02.810Z,28
2019-01-25T11:14:04.899Z,33
2019-01-25T11:15:07.003Z,38
2019-01-25T11:16:13.480Z,44
2019-01-25T11:17:15.563Z,59
2019-01-25T11:18:17.677Z,76
2019-01-25T11:19:19.784Z,88
2019-01-25T11:20:22.179Z,92
2019-01-25T11:21:24.273Z,94
2019-01-25T11:22:26.437Z,93
2019-01-25T11:23:28.590Z,94
2019-01-25T11:24:30.732Z,92
2019-01-25T11:25:33.110Z,87
2019-01-25T11:26:35.274Z,90
2019-01-25T11:27:37.378Z,96
2019-01-25T11:28:39.796Z,94
2019-01-25T11:29:41.907Z,91
2019-01-25T11:30:44.033Z,93
2019-01-25T11:31:46.148Z,91
2019-01-25T11:32:48.260Z,90
2019-01-25T11:33:50.372Z,93
2019-01-25T11:34:52.463Z,92
2019-01-25T11:35:54.577Z,87
2019-01-25T11:36:57.027Z,84
2019-01-25T11:37:59.180Z,81
2019-01-25T11:39:01.339Z,77
2019-01-25T11:40:03.470Z,73
2019-01-25T11:41:05.578Z,71
2019-01-25T11:42:07.706Z,69
2019-01-25T11:43:10.572Z,69
2019-01-25T11:44:12.693Z,69
2019-01-25T11:45:14.792Z,68
2019-01-25T11:46:17.697Z,64
2019-01-25T11:47:20.192Z,60
2019-01-25T11:48:22.580Z,57
2019-01-25T11:49:25.004Z,54
2019-01-25T11:50:27.491Z,51
2019-01-25T11:51:29.626Z,49
2019-01-25T11:52:31.733Z,47
2019-01-25T11:53:34.145Z,46
2019-01-25T11:54:36.242Z,46
2019-01-25T11:55:38.361Z,46
2019-01-25T11:56:40.461Z,45
2019-01-25T11:57:42.576Z,44
2019-01-25T11:58:44.703Z,44
2019-01-25T11:59:46.803Z,45
2019-01-25T12:00:48.941Z,45
2019-01-25T12:01:51.377Z,44
2019-01-25T12:02:53.488Z,42
2019-01-25T12:03:55.615Z,40
2019-01-25T12:04:57.716Z,40
2019-01-25T12:05:59.837Z,39
2019-01-25T12:07:01.945Z,38
2019-01-25T12:08:04.058Z,37
2019-01-25T12:09:06.165Z,37
2019-01-25T12:10:08.672Z,36
2019-01-25T12:11:11.091Z,34
2019-01-25T12:12:13.231Z,33
2019-01-25T12:13:18.043Z,33
2019-01-25T12:14:20.441Z,33
2019-01-25T12:15:22.565Z,32
2019-01-25T12:16:25.047Z,31
2019-01-25T12:17:27.153Z,31
2019-01-25T12:18:29.688Z,31
2019-01-25T12:19:31.825Z,31
2019-01-25T12:20:33.933Z,30
2019-01-25T12:21:36.040Z,30
2019-01-25T12:22:38.798Z,30
2019-01-25T12:23:40.972Z,29
2019-01-25T12:24:43.098Z,29
2019-01-25T12:25:45.251Z,28
2019-01-25T12:26:47.366Z,27
2019-01-25T12:27:49.741Z,27
2019-01-25T12:28:51.860Z,26
2019-01-25T12:29:54.245Z,25
2019-01-25T12:30:56.343Z,26
2019-01-25T12:31:58.752Z,25
2019-01-25T12:33:01.252Z,25
2019-01-25T12:34:04.245Z,24
2019-01-25T12:35:09.014Z,23
2019-01-25T12:36:11.124Z,22
2019-01-25T12:37:13.216Z,22
2019-01-25T12:38:15.328Z,22
2019-01-25T12:39:17.429Z,21
2019-01-25T12:40:19.847Z,21
2019-01-25T12:41:21.966Z,20
2019-01-25T12:42:24.072Z,20
2019-01-25T12:43:26.451Z,20
2019-01-25T12:44:28.573Z,20
2019-01-25T12:45:30.673Z,19
2019-01-25T12:46:33.437Z,18
2019-01-25T12:47:35.550Z,18
2019-01-25T12:48:37.937Z,19
2019-01-25T12:49:40.334Z,20
2019-01-25T12:50:42.437Z,21
2019-01-25T12:51:44.740Z,22
2019-01-25T12:52:46.885Z,20
2019-01-25T12:53:49.010Z,18
2019-01-25T12:54:51.277Z,18
2019-01-25T12:55:53.392Z,17
2019-01-25T12:56:55.519Z,16
2019-01-25T12:57:57.619Z,17
2019-01-25T12:58:59.890Z,18
2019-01-25T13:00:02.022Z,19
2019-01-25T13:01:04.167Z,19
2019-01-25T13:02:06.337Z,20
2019-01-25T13:03:08.460Z,19
2019-01-25T13:04:10.571Z,19
2019-01-25T13:05:12.660Z,19
2019-01-25T13:06:14.823Z,19
2019-01-25T13:07:16.929Z,19
2019-01-25T13:08:19.308Z,19
2019-01-25T13:09:21.976Z,19
2019-01-25T13:10:24.768Z,18
2019-01-25T13:11:27.171Z,19
2019-01-25T13:12:29.570Z,19
2019-01-25T13:13:33.444Z,19
2019-01-25T13:14:35.546Z,20
2019-01-25T13:15:37.937Z,21
2019-01-25T13:16:40.044Z,20
2019-01-25T13:17:42.463Z,20
2019-01-25T13:18:44.711Z,21
2019-01-25T13:19:46.851Z,21
2019-01-25T13:20:49.000Z,21
2019-01-25T13:21:51.096Z,21
2019-01-25T13:22:53.206Z,21
2019-01-25T13:23:55.697Z,21
2019-01-25T13:24:57.813Z,20
2019-01-25T13:25:59.915Z,20
2019-01-25T13:27:02.151Z,19
2019-01-25T13:28:04.432Z,18
2019-01-25T13:29:06.659Z,18
2019-01-25T13:30:09.526Z,16
2019-01-25T13:31:11.974Z,15
2019-01-25T13:32:15.988Z,16
2019-01-25T13:33:18.131Z,16
2019-01-25T13:34:20.424Z,17
2019-01-25T13:35:22.755Z,17
2019-01-25T13:36:25.058Z,17
2019-01-25T13:37:32.720Z,18
2019-01-25T13:38:34.839Z,19
2019-01-25T13:39:36.953Z,19
2019-01-25T13:40:39.058Z,18
2019-01-25T13:41:41.148Z,18
2019-01-25T13:42:43.253Z,18
2019-01-25T13:43:45.377Z,20
2019-01-25T13:44:47.480Z,20
2019-01-25T13:45:49.587Z,19
2019-01-25T13:46:53.412Z,17
2019-01-25T13:47:55.814Z,17
2019-01-25T13:48:58.213Z,17
2019-01-25T13:50:00.473Z,16
2019-01-25T13:51:02.574Z,16
2019-01-25T13:52:04.688Z,15
2019-01-25T13:53:06.798Z,14
2019-01-25T13:54:09.835Z,14
2019-01-25T13:55:11.928Z,14
2019-01-25T13:56:14.039Z,14
2019-01-25T13:57:17.330Z,14
2019-01-25T13:58:19.444Z,13
2019-01-25T13:59:21.552Z,13
2019-01-25T14:00:24.350Z,12
2019-01-25T14:01:26.453Z,13
2019-01-25T14:02:28.547Z,13
2019-01-25T14:03:30.668Z,12
2019-01-25T14:04:33.065Z,11
2019-01-25T14:05:35.166Z,11
2019-01-25T14:06:37.260Z,10
2019-01-25T14:07:39.387Z,10
2019-01-25T14:08:41.483Z,10
2019-01-25T14:09:43.593Z,10
2019-01-25T14:10:45.704Z,10
2019-01-25T14:11:48.069Z,9
2019-01-25T14:12:50.190Z,9
2019-01-25T14:13:52.604Z,8
2019-01-25T14:14:54.702Z,8
2019-01-25T14:15:56.808Z,8
2019-01-25T14:16:58.922Z,7
2019-01-25T14:18:01.032Z,7
2019-01-25T14:19:03.847Z,7
2019-01-25T14:20:06.247Z,7
2019-01-25T14:21:08.343Z,7
2019-01-25T14:22:10.456Z,7
2019-01-25T14:23:12.572Z,7
2019-01-25T14:24:18.348Z,7
2019-01-25T14:25:20.847Z,6
2019-01-25T14:26:23.033Z,6
2019-01-25T14:27:25.126Z,6
2019-01-25T14:28:27.243Z,6
2019-01-25T14:29:30.946Z,7
2019-01-25T14:30:33.335Z,7
2019-01-25T14:31:35.442Z,6
2019-01-25T14:32:37.552Z,6
2019-01-25T14:33:40.052Z,6
2019-01-25T14:34:42.155Z,6
2019-01-25T14:35:44.244Z,5
2019-01-25T14:36:46.365Z,5
2019-01-25T14:37:48.455Z,5
2019-01-25T14:38:50.559Z,5
2019-01-25T14:39:53.327Z,5
2019-01-25T14:40:55.502Z,4
2019-01-25T14:41:57.604Z,4
2019-01-25T14:42:59.727Z,4
2019-01-25T14:44:01.852Z,4
2019-01-25T14:45:03.942Z,3
2019-01-25T14:46:06.064Z,3
2019-01-25T14:47:08.170Z,3
2019-01-25T14:48:10.543Z,3
2019-01-25T14:49:12.672Z,3
2019-01-25T14:50:14.793Z,3
2019-01-25T14:51:16.902Z,3
2019-01-25T14:52:19.020Z,3
2019-01-25T14:53:21.134Z,3
2019-01-25T14:54:23.232Z,3
2019-01-25T14:55:25.337Z,3
2019-01-25T14:56:27.461Z,3
2019-01-25T14:57:29.574Z,3
2019-01-25T14:58:31.681Z,3
2019-01-25T14:59:33.801Z,3
2019-01-25T15:00:35.914Z,2
2019-01-25T15:01:38.045Z,2
2019-01-25T15:02:40.134Z,2
2019-01-25T15:03:42.237Z,2
2019-01-25T15:04:44.333Z,3
2019-01-25T15:05:46.741Z,3
2019-01-25T15:06:48.838Z,3
2019-01-25T15:07:50.964Z,2
2019-01-25T15:08:53.079Z,2
2019-01-25T15:09:55.174Z,2